Time;durP1;ratioP1;P1;durP2;ratioP2;P2;SDS_P1;SDS_P2;PMS_P1;PMS_P2;Temp;Humidity;BMP_temperature;BMP_pressure;BME280_temperature;BME280_humidity;BME280_pressure;Samples;Min_cycle;Max_cycle;Signal;HPM_P1;HPM_P2
2022/07/28 00:01:13;;;;;;;2.10;1.08;;;15.20;98.20;;;;;;4957915;29;20027;-59
2022/07/28 00:03:39;;;;;;;0.80;0.77;;;15.20;98.90;;;;;;4957093;29;20433;-59
2022/07/28 00:06:05;;;;;;;2.13;1.05;;;15.30;98.70;;;;;;4956847;29;20026;-60
2022/07/28 00:08:30;;;;;;;5.13;1.48;;;15.40;99.40;;;;;;4956672;29;20023;-61
2022/07/28 00:10:56;;;;;;;1.55;0.82;;;15.50;99.30;;;;;;4957002;29;20098;-60
2022/07/28 00:13:22;;;;;;;2.17;1.17;;;15.40;99.40;;;;;;4956659;29;20038;-61
2022/07/28 00:15:47;;;;;;;2.35;0.77;;;15.30;99.90;;;;;;4957427;29;20027;-61
2022/07/28 00:18:13;;;;;;;2.65;1.08;;;15.30;99.80;;;;;;4956783;29;20078;-60
2022/07/28 00:20:38;;;;;;;2.90;1.05;;;15.10;99.90;;;;;;4957286;29;20027;-60
2022/07/28 00:23:04;;;;;;;3.35;0.98;;;15.00;99.90;;;;;;4957955;28;20451;-59
2022/07/28 00:25:29;;;;;;;5.95;1.10;;;15.00;99.90;;;;;;4957920;28;20036;-62
2022/07/28 00:27:55;;;;;;;3.42;1.10;;;15.00;99.90;;;;;;4957468;28;20024;-61
2022/07/28 00:30:21;;;;;;;7.78;1.05;;;15.00;99.90;;;;;;4955493;28;20035;-59
2022/07/28 00:32:46;;;;;;;3.75;0.90;;;15.00;99.90;;;;;;4957097;29;20414;-62
2022/07/28 00:35:12;;;;;;;1.92;0.77;;;15.00;99.90;;;;;;4957339;28;20034;-60
2022/07/28 00:37:38;;;;;;;1.27;0.90;;;15.10;99.90;;;;;;4956097;29;20049;-61
2022/07/28 00:40:04;;;;;;;2.10;0.77;;;15.30;99.90;;;;;;4956138;29;20031;-62
2022/07/28 00:42:30;;;;;;;1.20;0.80;;;15.10;99.90;;;;;;4957211;28;20019;-61
2022/07/28 00:44:56;;;;;;;10.05;1.00;;;15.10;99.90;;;;;;4955969;29;20367;-58
2022/07/28 00:47:21;;;;;;;2.92;0.90;;;15.00;99.90;;;;;;4955900;29;20065;-62
2022/07/28 00:49:47;;;;;;;4.22;1.10;;;15.00;99.90;;;;;;4955811;29;20046;-60
2022/07/28 00:52:17;;;;;;;1.98;0.80;;;14.80;99.90;;;;;;4955977;29;20031;-61
2022/07/28 00:54:42;;;;;;;1.70;0.77;;;14.70;99.90;;;;;;4956374;29;20031;-62
2022/07/28 00:57:08;;;;;;;2.42;0.77;;;14.80;99.90;;;;;;4957023;28;20026;-62
2022/07/28 00:59:34;;;;;;;1.00;0.70;;;15.00;99.90;;;;;;4956994;28;20102;-62
2022/07/28 01:02:00;;;;;;;2.95;0.80;;;15.00;99.90;;;;;;4956610;29;20019;-62
2022/07/28 01:04:27;;;;;;;1.40;0.85;;;15.10;99.90;;;;;;4955753;28;20027;-61
2022/07/28 01:07:17;;;;;;;4.85;1.10;;;15.00;99.90;;;;;;4955644;29;20068;-62
2022/07/28 01:09:52;;;;;;;1.55;0.70;;;14.80;99.90;;;;;;4955594;29;20390;-62
2022/07/28 01:12:43;;;;;;;5.60;1.00;;;14.50;99.90;;;;;;4955481;29;20027;-62
2022/07/28 01:15:32;;;;;;;2.60;1.10;;;14.40;99.90;;;;;;4956622;29;20114;-62
2022/07/28 01:18:05;;;;;;;2.88;0.70;;;14.30;99.90;;;;;;4956547;28;20031;-62
2022/07/28 01:20:46;;;;;;;1.40;0.88;;;14.50;99.90;;;;;;4956522;29;20027;-61
2022/07/28 01:23:21;;;;;;;3.13;0.80;;;14.60;99.90;;;;;;4956708;28;20031;-62
2022/07/28 01:26:14;;;;;;;3.67;1.08;;;14.60;99.90;;;;;;4956419;29;20038;-61
2022/07/28 01:28:46;;;;;;;3.25;0.80;;;14.70;99.90;;;;;;4956934;28;20027;-60
2022/07/28 01:31:24;;;;;;;2.20;0.80;;;14.80;99.90;;;;;;4955233;29;20082;-60
2022/07/28 01:34:00;;;;;;;3.63;1.00;;;14.70;99.90;;;;;;4956322;28;20035;-61
2022/07/28 01:36:32;;;;;;;2.75;0.85;;;14.70;99.90;;;;;;4955313;29;20027;-59
2022/07/28 01:38:59;;;;;;;2.45;1.30;;;14.60;99.90;;;;;;4955018;29;20023;-61
2022/07/28 01:41:29;;;;;;;1.67;0.80;;;14.40;99.90;;;;;;4955526;28;20118;-61
2022/07/28 01:44:05;;;;;;;3.72;1.38;;;14.30;99.90;;;;;;4955758;29;20035;-61
2022/07/28 01:46:32;;;;;;;2.85;0.88;;;14.20;99.90;;;;;;4956152;28;20042;-62
2022/07/28 01:48:59;;;;;;;2.55;0.95;;;14.20;99.90;;;;;;4956288;28;20063;-61
2022/07/28 01:51:29;;;;;;;1.98;1.00;;;14.10;99.90;;;;;;4956042;28;20031;-62
2022/07/28 01:53:58;;;;;;;3.15;0.95;;;14.20;99.90;;;;;;4955017;29;20386;-62
2022/07/28 01:56:27;;;;;;;4.88;1.08;;;14.20;99.90;;;;;;4955995;28;20034;-62
2022/07/28 01:58:55;;;;;;;5.88;1.20;;;14.10;99.90;;;;;;4954845;29;20030;-62
2022/07/28 02:01:24;;;;;;;1.05;0.52;;;14.10;99.90;;;;;;4954570;28;20105;-62
2022/07/28 02:03:51;;;;;;;1.90;0.82;;;14.10;99.90;;;;;;4955764;28;20030;-60
2022/07/28 02:06:18;;;;;;;6.70;1.05;;;14.00;99.90;;;;;;4954709;29;20093;-61
2022/07/28 02:08:45;;;;;;;1.85;0.90;;;13.90;99.90;;;;;;4954702;29;20074;-62
2022/07/28 02:13:56;;;;;;;1.33;0.73;;;13.80;99.90;;;;;;4955922;29;20034;-61
2022/07/28 02:16:24;;;;;;;4.85;1.67;;;14.00;99.90;;;;;;4954482;28;20031;-62
2022/07/28 02:18:52;;;;;;;2.85;0.93;;;13.90;99.90;;;;;;4954310;29;20024;-62
2022/07/28 02:21:20;;;;;;;3.58;1.10;;;14.00;99.90;;;;;;4955752;28;20055;-60
2022/07/28 02:23:47;;;;;;;5.68;1.10;;;14.00;99.90;;;;;;4954325;28;20027;-61
2022/07/28 02:26:15;;;;;;;1.67;1.02;;;13.90;99.90;;;;;;4954230;29;20098;-62
2022/07/28 02:28:45;;;;;;;1.50;0.73;;;13.90;99.90;;;;;;4954160;29;20027;-59
2022/07/28 02:31:18;;;;;;;5.65;1.00;;;13.80;99.90;;;;;;4955258;28;20047;-60
2022/07/28 02:33:45;;;;;;;1.70;1.00;;;13.80;99.90;;;;;;4955895;28;20364;-62
2022/07/28 02:36:27;;;;;;;1.52;1.00;;;13.90;99.90;;;;;;4955612;28;20051;-62
2022/07/28 02:38:55;;;;;;;3.40;0.80;;;14.00;99.90;;;;;;4955355;28;20062;-61
2022/07/28 02:41:26;;;;;;;3.70;1.42;;;13.90;99.90;;;;;;4955303;28;20035;-61
2022/07/28 02:43:59;;;;;;;6.30;1.00;;;13.90;99.90;;;;;;4955274;28;20027;-61
2022/07/28 02:46:28;;;;;;;2.00;1.02;;;13.80;99.90;;;;;;4954630;29;20028;-60
2022/07/28 02:49:01;;;;;;;1.92;0.88;;;13.90;99.90;;;;;;4955160;28;20085;-62
2022/07/28 02:51:28;;;;;;;2.50;0.80;;;13.90;99.90;;;;;;4954299;29;20486;-62
2022/07/28 02:53:55;;;;;;;3.75;1.35;;;13.90;99.90;;;;;;4955083;28;20143;-58
2022/07/28 02:56:22;;;;;;;5.80;0.93;;;13.90;99.90;;;;;;4958866;29;20062;-59
2022/07/28 02:58:50;;;;;;;9.98;3.70;;;13.80;99.90;;;;;;4959088;28;20019;-62
2022/07/28 03:01:17;;;;;;;5.40;1.30;;;13.80;99.90;;;;;;4959210;28;20024;-60
2022/07/28 03:03:44;;;;;;;2.22;0.85;;;13.80;99.90;;;;;;4957800;29;20081;-62
2022/07/28 03:06:11;;;;;;;3.85;1.05;;;13.70;99.90;;;;;;4957743;29;20490;-61
2022/07/28 03:08:37;;;;;;;2.78;1.00;;;13.70;99.90;;;;;;4959027;28;20015;-62
2022/07/28 03:11:10;;;;;;;1.92;1.02;;;13.70;99.90;;;;;;4957760;29;20027;-62
2022/07/28 03:13:36;;;;;;;5.70;1.10;;;13.70;99.90;;;;;;4958863;28;20074;-62
2022/07/28 03:16:03;;;;;;;5.90;1.23;;;14.00;99.90;;;;;;4957666;29;20031;-62
2022/07/28 03:18:28;;;;;;;2.35;1.08;;;14.00;99.90;;;;;;4957451;29;20024;-62
2022/07/28 03:20:55;;;;;;;5.18;0.90;;;13.90;99.90;;;;;;4957558;29;20048;-62
2022/07/28 03:23:35;;;;;;;3.08;1.20;;;13.90;99.90;;;;;;4957856;29;20023;-62
2022/07/28 03:26:10;;;;;;;4.57;1.25;;;13.80;99.90;;;;;;4957759;29;20019;-61
2022/07/28 03:28:37;;;;;;;4.63;1.15;;;13.70;99.90;;;;;;4958640;28;20023;-62
2022/07/28 03:31:06;;;;;;;4.45;1.33;;;13.70;99.90;;;;;;4958567;28;20027;-60
2022/07/28 03:33:32;;;;;;;9.05;1.98;;;13.70;99.90;;;;;;4957623;29;20023;-62
2022/07/28 03:36:01;;;;;;;2.08;1.02;;;13.60;99.90;;;;;;4958437;28;20027;-62
2022/07/28 03:38:39;;;;;;;1.77;0.88;;;13.50;99.90;;;;;;4958633;28;20046;-62
2022/07/28 03:41:08;;;;;;;2.90;1.00;;;13.50;99.90;;;;;;4957232;29;20023;-62
2022/07/28 03:43:34;;;;;;;5.63;1.10;;;13.50;99.90;;;;;;4957115;29;20030;-61
2022/07/28 03:46:00;;;;;;;4.65;1.40;;;13.50;99.90;;;;;;4957427;29;20030;-62
2022/07/28 03:48:33;;;;;;;2.60;1.05;;;13.40;99.90;;;;;;4957035;29;20031;-62
2022/07/28 03:50:59;;;;;;;3.53;1.13;;;13.40;99.90;;;;;;4958541;28;20027;-62
2022/07/28 03:53:26;;;;;;;2.25;1.20;;;13.40;99.90;;;;;;4958290;28;20054;-62
2022/07/28 03:55:52;;;;;;;3.85;1.10;;;13.50;99.90;;;;;;4957250;29;20031;-62
2022/07/28 03:58:24;;;;;;;4.18;1.02;;;13.50;99.90;;;;;;4958067;28;20019;-62
2022/07/28 04:00:50;;;;;;;;;;;13.50;99.90;;;;;;4958068;29;20069;-60
2022/07/28 04:03:17;;;;;;;2.85;1.20;;;13.50;99.90;;;;;;4957448;28;19993;-59
2022/07/28 04:05:43;;;;;;;1.60;0.95;;;13.50;99.90;;;;;;4956653;28;20494;-62
2022/07/28 04:08:08;;;;;;;3.03;1.30;;;13.50;99.90;;;;;;4957916;28;20066;-62
2022/07/28 04:10:34;;;;;;;9.55;1.55;;;13.50;99.90;;;;;;4957835;28;20039;-62
2022/07/28 04:13:00;;;;;;;3.35;1.73;;;13.40;99.90;;;;;;4956574;29;20030;-62
2022/07/28 04:15:27;;;;;;;3.28;0.95;;;13.50;99.90;;;;;;4957741;28;20410;-62
2022/07/28 04:17:54;;;;;;;2.25;1.05;;;13.50;99.90;;;;;;4956802;29;20129;-63
2022/07/28 04:20:21;;;;;;;4.30;1.30;;;13.60;99.90;;;;;;4956554;28;20028;-62
2022/07/28 04:22:48;;;;;;;4.25;1.25;;;13.70;99.90;;;;;;4957701;28;20027;-62
2022/07/28 04:25:15;;;;;;;2.72;1.23;;;13.80;99.90;;;;;;4957875;28;20023;-62
2022/07/28 04:27:42;;;;;;;2.17;1.02;;;14.00;99.90;;;;;;4958106;28;20041;-60
2022/07/28 04:30:12;;;;;;;1.17;0.90;;;14.20;99.90;;;;;;4956451;29;20067;-61
2022/07/28 04:32:38;;;;;;;3.03;1.17;;;14.20;99.90;;;;;;4957259;29;20034;-62
2022/07/28 04:35:05;;;;;;;2.85;1.10;;;14.50;99.90;;;;;;4957472;28;20038;-62
2022/07/28 04:37:31;;;;;;;2.83;0.85;;;14.70;99.90;;;;;;4957377;28;20086;-62
2022/07/28 04:39:56;;;;;;;2.45;0.93;;;14.90;99.90;;;;;;4957176;29;20023;-63
2022/07/28 04:42:22;;;;;;;3.38;1.02;;;15.30;99.90;;;;;;4956403;29;20121;-62
2022/07/28 04:44:47;;;;;;;6.93;1.33;;;15.60;99.90;;;;;;4956076;29;20034;-59
2022/07/28 04:47:13;;;;;;;1.40;1.02;;;15.90;99.90;;;;;;4957595;28;20059;-62
2022/07/28 04:49:39;;;;;;;3.45;1.33;;;16.20;99.90;;;;;;4956008;29;20039;-62
2022/07/28 04:52:07;;;;;;;5.38;1.40;;;16.70;99.90;;;;;;4957388;28;20031;-62
2022/07/28 04:54:36;;;;;;;3.75;1.15;;;17.20;99.90;;;;;;4957054;28;20051;-62
2022/07/28 04:57:02;;;;;;;4.60;0.90;;;17.70;99.90;;;;;;4956152;29;20027;-61
2022/07/28 04:59:28;;;;;;;1.98;0.80;;;18.20;99.90;;;;;;4956650;29;20031;-63
2022/07/28 05:01:56;;;;;;;6.35;1.10;;;18.70;99.90;;;;;;4957167;28;20023;-62
2022/07/28 05:04:22;;;;;;;5.68;2.08;;;19.00;99.90;;;;;;4956982;28;20020;-62
2022/07/28 05:06:47;;;;;;;3.00;0.90;;;19.30;99.90;;;;;;4956887;28;20023;-62
2022/07/28 05:09:13;;;;;;;1.42;0.73;;;19.30;99.90;;;;;;4956805;28;20027;-62
2022/07/28 05:11:38;;;;;;;3.40;1.20;;;19.30;99.90;;;;;;4955564;28;20113;-62
2022/07/28 05:14:04;;;;;;;1.55;0.98;;;19.20;99.90;;;;;;4956799;28;20059;-62
2022/07/28 05:16:30;;;;;;;2.70;0.90;;;18.90;99.90;;;;;;4955011;28;20023;-62
2022/07/28 05:18:55;;;;;;;3.17;1.77;;;18.70;99.90;;;;;;4956863;28;20470;-62
2022/07/28 05:21:21;;;;;;;4.88;1.48;;;18.60;99.90;;;;;;4956865;28;20034;-59
2022/07/28 05:23:47;;;;;;;2.92;0.90;;;18.60;99.90;;;;;;4955657;28;20115;-62
2022/07/28 05:26:13;;;;;;;3.35;1.10;;;18.80;99.90;;;;;;4955214;29;20027;-62
2022/07/28 05:28:39;;;;;;;2.35;1.10;;;18.70;99.90;;;;;;4955201;29;20027;-62
2022/07/28 05:31:06;;;;;;;6.35;3.03;;;18.80;99.90;;;;;;4956517;28;20038;-62
2022/07/28 05:33:32;;;;;;;5.82;1.52;;;18.90;99.90;;;;;;4955091;29;20024;-63
2022/07/28 05:35:58;;;;;;;11.55;1.40;;;19.00;99.90;;;;;;4955272;29;20035;-62
2022/07/28 05:38:29;;;;;;;5.75;1.60;;;19.40;99.90;;;;;;4955357;29;20114;-63
2022/07/28 05:40:55;;;;;;;3.40;1.10;;;19.70;99.90;;;;;;4955115;29;20047;-62
2022/07/28 05:43:21;;;;;;;3.83;1.23;;;19.80;99.90;;;;;;4954991;28;20031;-62
2022/07/28 05:45:47;;;;;;;11.43;1.20;;;19.60;99.90;;;;;;4955262;29;20030;-63
2022/07/28 05:48:15;;;;;;;3.70;1.02;;;19.30;99.90;;;;;;4954926;28;20059;-63
2022/07/28 05:50:40;;;;;;;2.90;1.20;;;19.20;99.90;;;;;;4955099;28;20023;-62
2022/07/28 05:53:06;;;;;;;6.72;2.15;;;19.20;99.90;;;;;;4955230;29;20114;-63
2022/07/28 05:55:32;;;;;;;4.90;1.38;;;19.40;99.90;;;;;;4956271;28;20038;-62
2022/07/28 05:57:59;;;;;;;10.63;1.67;;;19.60;99.90;;;;;;4954690;29;20034;-62
2022/07/28 06:00:25;;;;;;;12.70;1.40;;;19.50;99.90;;;;;;4956486;28;20019;-61
2022/07/28 06:02:51;;;;;;;7.28;1.33;;;19.40;99.90;;;;;;4954587;29;20027;-62
2022/07/28 06:05:19;;;;;;;2.92;1.15;;;19.60;99.90;;;;;;4955820;28;20394;-62
2022/07/28 06:07:46;;;;;;;4.28;1.52;;;19.80;99.90;;;;;;4955796;28;20074;-60
2022/07/28 06:10:13;;;;;;;9.95;1.67;;;20.00;99.90;;;;;;4954547;29;20031;-63
2022/07/28 06:12:44;;;;;;;5.47;1.20;;;20.20;99.90;;;;;;4955706;28;20035;-62
2022/07/28 06:15:15;;;;;;;10.15;1.63;;;20.40;99.90;;;;;;4955737;28;20023;-59
2022/07/28 06:17:41;;;;;;;5.85;1.20;;;21.10;99.90;;;;;;4954395;29;20031;-61
2022/07/28 06:20:07;;;;;;;4.85;1.00;;;21.70;99.90;;;;;;4955682;28;20019;-60
2022/07/28 06:22:44;;;;;;;2.25;1.00;;;22.10;99.90;;;;;;4955541;28;20042;-61
2022/07/28 06:25:18;;;;;;;3.50;1.65;;;22.70;99.90;;;;;;4955673;28;20027;-62
2022/07/28 06:27:45;;;;;;;6.28;1.50;;;23.60;98.80;;;;;;4954668;28;20027;-62
2022/07/28 06:30:11;;;;;;;3.85;1.17;;;24.30;96.90;;;;;;4955012;28;20107;-62
2022/07/28 06:32:36;;;;;;;4.53;1.92;;;24.80;95.20;;;;;;4955584;28;20111;-61
2022/07/28 06:35:02;;;;;;;3.13;1.20;;;25.30;94.00;;;;;;4955601;28;20031;-59
2022/07/28 06:37:28;;;;;;;4.32;1.27;;;25.70;93.40;;;;;;4954046;29;20127;-61
2022/07/28 06:39:54;;;;;;;4.07;1.60;;;26.30;93.00;;;;;;4954327;28;20027;-62
2022/07/28 06:42:19;;;;;;;11.88;1.67;;;27.30;90.40;;;;;;4954482;29;20106;-62
2022/07/28 06:44:45;;;;;;;6.45;2.17;;;27.60;84.90;;;;;;4954158;29;20024;-62
2022/07/28 06:47:10;;;;;;;8.45;1.80;;;28.10;84.70;;;;;;4954705;29;20023;-62
2022/07/28 06:49:36;;;;;;;7.75;1.20;;;28.30;81.70;;;;;;4955444;28;20097;-62
2022/07/28 06:52:01;;;;;;;10.05;1.90;;;28.60;78.70;;;;;;4955273;28;20032;-59
2022/07/28 06:54:27;;;;;;;6.63;2.05;;;27.90;77.40;;;;;;4953608;29;20397;-61
2022/07/28 06:56:53;;;;;;;6.13;1.25;;;27.70;79.40;;;;;;4953794;29;20035;-62
2022/07/28 06:59:18;;;;;;;8.35;1.63;;;28.20;78.50;;;;;;4954930;28;20095;-62
2022/07/28 07:01:44;;;;;;;7.25;1.75;;;29.20;78.80;;;;;;4953808;28;20034;-62
2022/07/28 07:04:10;;;;;;;5.45;1.33;;;30.20;75.30;;;;;;4953908;29;20027;-62
2022/07/28 07:06:35;;;;;;;4.25;1.17;;;30.10;69.70;;;;;;4953843;29;20028;-62
2022/07/28 07:09:01;;;;;;;6.70;1.33;;;29.80;70.80;;;;;;4954158;29;20128;-62
2022/07/28 07:11:27;;;;;;;6.90;1.00;;;29.90;69.90;;;;;;4955185;28;20090;-62
2022/07/28 07:13:53;;;;;;;3.28;0.90;;;30.40;68.50;;;;;;4954677;29;20114;-62
2022/07/28 07:16:19;;;;;;;4.55;1.20;;;29.70;66.10;;;;;;4955455;28;20015;-62
2022/07/28 07:18:47;;;;;;;4.90;1.33;;;30.00;67.80;;;;;;4955155;28;20094;-62
2022/07/28 07:21:13;;;;;;;4.85;1.30;;;31.00;67.50;;;;;;4953804;29;20035;-61
2022/07/28 07:23:38;;;;;;;4.30;1.00;;;29.90;63.30;;;;;;4954076;29;20023;-62
2022/07/28 07:26:04;;;;;;;2.97;1.10;;;29.50;66.40;;;;;;4954093;28;20074;-62
2022/07/28 07:28:43;;;;;;;5.75;1.58;;;30.40;64.40;;;;;;4953922;29;20053;-63
2022/07/28 07:31:08;;;;;;;4.90;1.63;;;30.30;62.20;;;;;;4954784;29;20031;-67
2022/07/28 07:33:34;;;;;;;6.97;1.35;;;29.40;63.80;;;;;;4954185;28;20035;-67
2022/07/28 07:36:00;;;;;;;5.30;1.25;;;30.00;67.00;;;;;;4954933;28;20023;-65
2022/07/28 07:38:26;;;;;;;3.85;1.17;;;31.10;61.20;;;;;;4954928;28;20073;-67
2022/07/28 07:40:51;;;;;;;3.25;1.42;;;30.10;62.50;;;;;;4957958;28;20023;-66
2022/07/28 07:43:17;;;;;;;5.63;1.13;;;30.90;63.20;;;;;;4958677;28;20023;-66
2022/07/28 07:45:43;;;;;;;7.70;1.10;;;31.60;59.90;;;;;;4958431;29;20039;-60
2022/07/28 07:48:09;;;;;;;2.00;0.90;;;31.70;62.90;;;;;;4958537;29;20130;-61
2022/07/28 07:50:35;;;;;;;5.10;0.98;;;33.10;60.60;;;;;;4958827;28;20089;-62
2022/07/28 07:53:00;;;;;;;3.40;1.00;;;33.80;56.90;;;;;;4957469;29;20027;-62
2022/07/28 07:55:26;;;;;;;3.70;1.70;;;33.20;57.40;;;;;;4957421;29;20031;-61
2022/07/28 07:57:52;;;;;;;5.88;1.45;;;33.00;57.50;;;;;;4958568;28;20019;-62
2022/07/28 08:00:18;;;;;;;2.60;0.90;;;33.50;57.40;;;;;;4958427;28;20027;-62
2022/07/28 08:02:44;;;;;;;2.58;1.02;;;34.90;55.90;;;;;;4958129;28;20026;-62
2022/07/28 08:05:10;;;;;;;7.00;1.60;;;35.30;54.90;;;;;;4958006;28;20031;-62
2022/07/28 08:07:35;;;;;;;4.13;1.20;;;35.70;55.20;;;;;;4957871;28;20023;-62
2022/07/28 08:10:03;;;;;;;3.40;1.10;;;36.30;52.90;;;;;;4958126;28;20114;-62
2022/07/28 08:12:29;;;;;;;4.25;1.30;;;35.60;53.60;;;;;;4957929;28;20136;-62
2022/07/28 08:14:54;;;;;;;3.15;1.25;;;36.60;52.00;;;;;;4956999;29;20035;-62
2022/07/28 08:17:21;;;;;;;4.82;1.10;;;37.00;50.80;;;;;;4957785;28;20102;-62
2022/07/28 08:19:47;;;;;;;6.90;1.23;;;35.70;50.60;;;;;;4956531;29;20059;-61
2022/07/28 08:22:14;;;;;;;8.07;1.20;;;35.50;50.40;;;;;;4956571;29;20498;-61
2022/07/28 08:24:40;;;;;;;3.20;1.13;;;35.10;51.90;;;;;;4956644;29;20033;-62
2022/07/28 08:27:05;;;;;;;3.58;1.30;;;35.60;52.90;;;;;;4956555;29;20114;-60
2022/07/28 08:29:31;;;;;;;5.45;1.50;;;36.30;52.00;;;;;;4957518;28;20041;-62
2022/07/28 08:31:57;;;;;;;7.10;1.40;;;37.00;50.40;;;;;;4956341;29;20030;-61
2022/07/28 08:34:24;;;;;;;4.75;1.10;;;36.40;49.90;;;;;;4956638;29;20031;-61
2022/07/28 08:36:49;;;;;;;2.10;1.10;;;34.90;50.00;;;;;;4956413;29;20062;-62
2022/07/28 08:39:15;;;;;;;6.00;1.42;;;35.70;50.90;;;;;;4957449;28;20051;-61
2022/07/28 08:41:53;;;;;;;4.72;1.45;;;36.10;49.70;;;;;;4957616;28;20059;-62
2022/07/28 08:44:23;;;;;;;3.78;1.23;;;36.70;49.20;;;;;;4956106;29;20038;-62
2022/07/28 08:46:49;;;;;;;;;;;37.20;48.00;;;;;;4958053;28;20427;-62
2022/07/28 08:49:15;;;;;;;5.53;1.20;;;37.90;47.80;;;;;;4956391;28;20010;-62
2022/07/28 08:51:42;;;;;;;3.55;1.10;;;36.00;48.80;;;;;;4956576;28;20102;-62
2022/07/28 08:54:10;;;;;;;3.55;1.30;;;36.40;49.10;;;;;;4955937;29;20031;-62
2022/07/28 08:56:41;;;;;;;3.10;1.05;;;36.50;48.80;;;;;;4957093;29;20114;-62
2022/07/28 08:59:07;;;;;;;5.65;1.10;;;37.60;49.20;;;;;;4955895;29;20019;-61
2022/07/28 09:01:33;;;;;;;5.80;1.13;;;37.80;47.50;;;;;;4957107;28;20130;-62
2022/07/28 09:04:00;;;;;;;5.53;1.48;;;37.40;46.90;;;;;;4956746;29;20027;-61
2022/07/28 09:06:26;;;;;;;4.28;1.20;;;36.20;47.90;;;;;;4955834;28;20019;-65
2022/07/28 09:08:51;;;;;;;5.20;1.20;;;35.10;49.30;;;;;;4955765;29;20030;-65
2022/07/28 09:11:17;;;;;;;8.07;1.27;;;35.80;49.00;;;;;;4956885;28;20039;-62
2022/07/28 09:13:43;;;;;;;2.47;1.40;;;37.10;48.30;;;;;;4957170;28;20035;-62
2022/07/28 09:16:11;;;;;;;9.02;1.55;;;37.20;47.80;;;;;;4955464;29;20031;-62
2022/07/28 09:18:37;;;;;;;4.43;1.25;;;35.90;48.60;;;;;;4955917;28;20478;-61
2022/07/28 09:21:03;;;;;;;4.82;1.10;;;33.90;49.30;;;;;;4957951;28;20103;-62
2022/07/28 09:23:45;;;;;;;2.22;0.98;;;33.60;51.30;;;;;;4955440;29;20075;-62
2022/07/28 09:26:12;;;;;;;3.28;1.10;;;35.70;49.80;;;;;;4956849;28;20023;-62
2022/07/28 09:28:49;;;;;;;10.95;1.30;;;36.20;48.00;;;;;;4955269;29;20027;-62
2022/07/28 09:31:16;;;;;;;3.05;1.20;;;35.70;49.80;;;;;;4955288;29;20027;-62
2022/07/28 09:33:56;;;;;;;4.75;1.27;;;35.20;49.30;;;;;;4955230;29;20059;-62
2022/07/28 09:36:21;;;;;;;7.13;1.40;;;35.40;49.10;;;;;;4956163;29;20027;-62
2022/07/28 09:38:47;;;;;;;2.30;1.00;;;35.00;50.10;;;;;;4955389;29;20471;-62
2022/07/28 09:41:17;;;;;;;4.13;1.20;;;35.10;49.30;;;;;;4955250;29;20063;-62
2022/07/28 09:43:44;;;;;;;1.95;0.98;;;34.60;50.30;;;;;;4955593;28;20114;-62
2022/07/28 09:46:10;;;;;;;2.10;1.08;;;36.50;49.80;;;;;;4955290;29;20122;-62
2022/07/28 09:48:57;;;;;;;5.70;1.38;;;37.30;47.80;;;;;;4956558;28;20117;-62
2022/07/28 09:51:26;;;;;;;4.40;1.38;;;36.80;47.30;;;;;;4955795;29;20027;-62
2022/07/28 09:54:04;;;;;;;3.03;1.40;;;36.40;48.10;;;;;;4955185;29;20054;-62
2022/07/28 09:56:30;;;;;;;2.08;1.10;;;35.80;48.50;;;;;;4956572;28;20467;-62
2022/07/28 09:58:58;;;;;;;2.08;1.40;;;36.00;49.20;;;;;;4955074;29;20027;-62
2022/07/28 10:01:24;;;;;;;4.07;1.13;;;37.20;49.00;;;;;;4957473;28;20027;-62
2022/07/28 10:03:56;;;;;;;3.55;1.60;;;38.60;46.80;;;;;;4956375;28;20019;-62
2022/07/28 10:06:27;;;;;;;3.17;1.23;;;38.00;46.50;;;;;;4956502;28;20039;-62
2022/07/28 10:08:55;;;;;;;5.35;1.40;;;37.30;47.10;;;;;;4954711;28;20190;-62
2022/07/28 10:11:25;;;;;;;8.77;1.75;;;36.00;47.80;;;;;;4955566;29;20054;-62
2022/07/28 10:13:51;;;;;;;2.28;1.45;;;35.80;48.20;;;;;;4955809;28;20030;-62
2022/07/28 10:16:17;;;;;;;4.15;1.30;;;36.10;49.00;;;;;;4955504;28;20023;-62
2022/07/28 10:18:43;;;;;;;6.90;1.33;;;35.70;49.80;;;;;;4954449;29;20136;-62
2022/07/28 10:21:12;;;;;;;2.58;1.23;;;36.10;49.10;;;;;;4956286;28;20027;-62
2022/07/28 10:23:40;;;;;;;2.55;1.20;;;37.00;47.20;;;;;;4954728;29;20570;-62
2022/07/28 10:26:09;;;;;;;3.50;1.52;;;36.20;47.90;;;;;;4955713;28;20042;-62
2022/07/28 10:28:37;;;;;;;4.30;1.20;;;35.10;48.90;;;;;;4954172;29;20031;-62
2022/07/28 10:31:08;;;;;;;7.70;1.55;;;34.30;49.10;;;;;;4954326;28;20118;-62
2022/07/28 10:33:37;;;;;;;7.25;1.52;;;34.40;50.20;;;;;;4955601;28;20106;-62
2022/07/28 10:36:04;;;;;;;8.40;1.38;;;34.30;50.90;;;;;;4954332;29;20034;-62
2022/07/28 10:38:35;;;;;;;2.80;1.20;;;34.40;50.00;;;;;;4954895;29;20023;-62
2022/07/28 10:41:07;;;;;;;5.10;1.10;;;33.10;51.70;;;;;;4955821;28;20058;-61
2022/07/28 10:43:34;;;;;;;4.75;1.42;;;31.90;51.80;;;;;;4955244;29;20027;-62
2022/07/28 10:46:02;;;;;;;4.43;1.10;;;31.00;53.10;;;;;;4954460;29;20090;-62
2022/07/28 10:48:28;;;;;;;2.22;1.10;;;31.40;53.60;;;;;;4955173;28;20038;-62
2022/07/28 10:50:55;;;;;;;4.25;1.17;;;30.90;53.30;;;;;;4954877;29;20031;-62
2022/07/28 10:53:41;;;;;;;5.53;1.30;;;31.30;54.10;;;;;;4955376;28;20030;-60
2022/07/28 10:56:18;;;;;;;2.60;1.02;;;31.30;54.10;;;;;;4954529;29;20044;-62
2022/07/28 10:58:49;;;;;;;3.95;1.10;;;31.30;54.20;;;;;;4954648;28;20037;-62
2022/07/28 11:01:35;;;;;;;4.70;0.90;;;31.70;54.00;;;;;;4955277;28;20031;-62
2022/07/28 11:04:01;;;;;;;2.95;1.23;;;32.00;53.10;;;;;;4955262;28;20109;-62
2022/07/28 11:06:35;;;;;;;4.00;0.85;;;31.80;53.50;;;;;;4955289;28;20038;-62
2022/07/28 11:09:27;;;;;;;5.72;1.33;;;32.00;53.30;;;;;;4954085;29;20114;-61
2022/07/28 11:11:56;;;;;;;4.35;1.40;;;31.30;53.60;;;;;;4954686;29;20474;-60
2022/07/28 11:14:22;;;;;;;6.13;2.20;;;29.80;54.40;;;;;;4956092;28;20027;-61
2022/07/28 11:17:09;;;;;;;4.28;1.70;;;28.60;56.10;;;;;;4959720;28;20028;-60
2022/07/28 11:19:44;;;;;;;8.43;1.48;;;27.80;57.80;;;;;;4958926;29;20512;-60
2022/07/28 11:24:57;;;;;;;3.13;1.23;;;28.60;58.30;;;;;;4959231;28;20039;-62
2022/07/28 11:27:41;;;;;;;;;;;29.30;57.80;;;;;;4960044;28;20027;-61
2022/07/28 11:30:34;;;;;;;3.20;1.10;;;29.10;56.20;;;;;;4960496;28;19970;-57
2022/07/28 11:33:00;;;;;;;1.10;1.00;;;28.40;57.60;;;;;;4958859;29;20103;-60
2022/07/28 11:35:53;;;;;;;2.53;1.42;;;28.10;57.70;;;;;;4958064;29;20063;-62
2022/07/28 11:38:19;;;;;;;6.50;1.38;;;28.20;57.70;;;;;;4958494;28;20035;-61
2022/07/28 11:40:46;;;;;;;5.78;1.42;;;28.20;57.80;;;;;;4959234;29;20027;-61
2022/07/28 11:43:21;;;;;;;3.45;1.20;;;27.90;58.00;;;;;;4958668;29;20027;-61
2022/07/28 11:46:17;;;;;;;4.65;1.20;;;27.70;58.70;;;;;;4958958;29;20110;-58
2022/07/28 11:48:46;;;;;;;3.10;1.25;;;27.40;59.00;;;;;;4958196;29;20043;-60
2022/07/28 11:51:12;;;;;;;1.42;0.90;;;27.60;58.80;;;;;;4959186;29;20483;-59
2022/07/28 11:53:38;;;;;;;5.80;1.38;;;27.50;59.20;;;;;;4960473;28;20027;-59
2022/07/28 11:56:05;;;;;;;7.38;1.25;;;27.50;59.10;;;;;;4959739;28;20034;-60
2022/07/28 11:58:31;;;;;;;4.43;1.25;;;27.80;59.10;;;;;;4958244;29;20024;-60
2022/07/28 12:01:13;;;;;;;4.03;1.20;;;27.90;59.30;;;;;;4957637;28;20027;-61
2022/07/28 12:03:40;;;;;;;4.72;1.55;;;28.20;58.70;;;;;;4957118;29;20027;-62
2022/07/28 12:06:10;;;;;;;2.65;0.82;;;28.40;58.50;;;;;;4958349;28;20107;-62
2022/07/28 12:08:53;;;;;;;3.33;1.35;;;28.50;58.50;;;;;;4958217;28;20346;-61
2022/07/28 12:11:19;;;;;;;2.47;1.20;;;28.40;58.20;;;;;;4957144;29;20034;-62
2022/07/28 12:13:46;;;;;;;2.30;1.05;;;28.60;58.40;;;;;;4958153;28;20434;-62
2022/07/28 12:16:12;;;;;;;5.90;1.35;;;28.30;57.80;;;;;;4959228;28;20023;-61
2022/07/28 12:18:38;;;;;;;3.75;1.42;;;28.00;57.70;;;;;;4958428;28;20031;-59
2022/07/28 12:21:04;;;;;;;2.58;1.35;;;27.50;59.10;;;;;;4957631;29;20027;-61
2022/07/28 12:23:32;;;;;;;2.05;1.10;;;27.70;59.20;;;;;;4956677;29;20050;-62
2022/07/28 12:26:03;;;;;;;3.38;1.65;;;28.00;59.00;;;;;;4957986;28;20031;-61
2022/07/28 12:28:31;;;;;;;;;;;27.70;57.80;;;;;;4959076;28;20116;-62
2022/07/28 12:31:09;;;;;;;7.07;1.10;;;27.70;57.90;;;;;;4957286;28;19942;-62
2022/07/28 12:33:35;;;;;;;4.25;1.33;;;28.00;58.60;;;;;;4958081;28;20027;-62
2022/07/28 12:36:01;;;;;;;3.45;1.20;;;28.20;59.40;;;;;;4958509;28;20034;-61
2022/07/28 12:38:27;;;;;;;3.40;1.20;;;28.00;59.40;;;;;;4956973;28;20026;-61
2022/07/28 12:40:54;;;;;;;2.30;1.40;;;28.00;58.40;;;;;;4957836;28;20020;-62
2022/07/28 12:43:21;;;;;;;5.22;1.60;;;28.30;59.10;;;;;;4956742;29;20026;-60
2022/07/28 12:45:47;;;;;;;1.50;1.10;;;28.20;57.70;;;;;;4957712;28;20101;-62
2022/07/28 12:48:16;;;;;;;3.58;1.30;;;28.30;58.90;;;;;;4957185;29;20039;-61
2022/07/28 12:50:42;;;;;;;3.63;1.63;;;28.10;58.50;;;;;;4958264;28;20058;-62
2022/07/28 12:53:09;;;;;;;3.75;2.05;;;28.10;58.30;;;;;;4956864;29;20023;-61
2022/07/28 12:55:36;;;;;;;2.47;1.50;;;28.00;58.00;;;;;;4958358;28;20027;-61
2022/07/28 12:58:03;;;;;;;2.28;1.05;;;27.90;58.50;;;;;;4958462;28;20478;-61
2022/07/28 13:00:31;;;;;;;5.22;1.27;;;27.60;58.50;;;;;;4956052;29;20032;-61